Time;durP1;ratioP1;P1;durP2;ratioP2;P2;SDS_P1;SDS_P2;PMS_P1;PMS_P2;Temp;Humidity;BMP_temperature;BMP_pressure;BME280_temperature;BME280_humidity;BME280_pressure;Samples;Min_cycle;Max_cycle;Signal;HPM_P1;HPM_P2
2022/04/11 00:01:23;;;;;;;5.87;4.07;;;;;;;;;;4988402;28;20341;-69
2022/04/11 00:03:49;;;;;;;6.30;4.87;;;;;;;;;;4970649;28;20034;-68
2022/04/11 00:06:14;;;;;;;6.53;4.40;;;4.20;99.90;;;;;;4971094;28;20050;-69
2022/04/11 00:08:40;;;;;;;6.77;3.73;;;;;;;;;;4970519;28;20018;-69
2022/04/11 00:11:06;;;;;;;7.67;4.17;;;4.20;99.90;;;;;;4969838;28;20038;-70
2022/04/11 00:13:32;;;;;;;5.93;4.17;;;;;;;;;;4969949;28;20038;-69
2022/04/11 00:15:58;;;;;;;7.87;4.60;;;4.20;99.90;;;;;;4970996;28;20038;-69
2022/04/11 00:18:23;;;;;;;3.27;2.70;;;4.20;99.90;;;;;;4988516;28;20033;-69
2022/04/11 00:20:49;;;;;;;6.67;3.97;;;4.30;99.90;;;;;;4989578;28;20093;-70
2022/04/11 00:23:14;;;;;;;7.50;4.50;;;4.30;99.90;;;;;;4989979;28;20050;-69
2022/04/11 00:25:40;;;;;;;8.53;4.77;;;;;;;;;;4988068;28;20053;-69
2022/04/11 00:28:06;;;;;;;6.00;4.10;;;4.30;99.90;;;;;;4989073;28;20026;-69
2022/04/11 00:30:31;;;;;;;5.60;3.97;;;4.20;99.90;;;;;;4989398;28;20070;-69
2022/04/11 00:32:57;;;;;;;9.30;5.00;;;4.20;99.90;;;;;;4989960;28;20018;-70
2022/04/11 00:35:23;;;;;;;5.13;3.47;;;;;;;;;;4973013;28;20369;-69
2022/04/11 00:37:49;;;;;;;6.93;4.40;;;4.20;99.90;;;;;;4970337;28;20023;-69
2022/04/11 00:40:14;;;;;;;10.23;5.63;;;4.30;99.90;;;;;;4975317;28;20101;-70
2022/04/11 00:42:40;;;;;;;6.57;4.40;;;4.20;99.90;;;;;;4987547;28;20026;-69
2022/04/11 00:45:06;;;;;;;6.23;4.33;;;4.40;99.90;;;;;;4990018;28;20022;-69
2022/04/11 00:47:32;;;;;;;6.17;4.13;;;3.00;99.90;;;;;;4989223;28;20029;-69
2022/04/11 00:50:09;;;;;;;5.00;3.63;;;4.30;99.90;;;;;;4989902;28;20054;-69
2022/04/11 00:52:37;;;;;;;8.00;4.50;;;4.20;99.90;;;;;;4989198;28;20480;-69
2022/04/11 00:55:05;;;;;;;9.83;3.80;;;4.50;99.90;;;;;;4989661;28;20088;-69
2022/04/11 00:57:31;;;;;;;7.33;3.87;;;;;;;;;;4971732;28;20109;-69
2022/04/11 00:59:57;;;;;;;10.17;4.47;;;4.30;99.90;;;;;;4989778;28;20027;-69
2022/04/11 01:02:23;;;;;;;8.87;4.27;;;;;;;;;;4989392;28;20519;-70
2022/04/11 01:04:48;;;;;;;8.37;4.90;;;4.50;99.90;;;;;;4989467;28;20022;-69
2022/04/11 01:07:14;;;;;;;5.70;4.63;;;4.40;99.90;;;;;;4989882;28;20026;-69
2022/04/11 01:09:40;;;;;;;9.03;4.20;;;4.40;99.90;;;;;;4985893;28;20042;-70
2022/04/11 01:12:07;;;;;;;7.23;5.00;;;4.80;99.90;;;;;;4989612;28;20137;-70
2022/04/11 01:14:33;;;;;;;8.43;5.30;;;;;;;;;;4989152;28;20035;-69
2022/04/11 01:16:59;;;;;;;5.43;3.87;;;4.60;99.90;;;;;;4989370;28;20027;-69
2022/04/11 01:19:26;;;;;;;10.93;4.00;;;4.50;99.90;;;;;;4989427;28;20026;-69
2022/04/11 01:21:51;;;;;;;11.03;4.73;;;4.60;99.90;;;;;;4990507;28;20097;-69
2022/04/11 01:24:20;;;;;;;9.03;4.77;;;4.60;99.90;;;;;;4993237;28;20026;-70
2022/04/11 01:26:47;;;;;;;8.90;5.37;;;4.60;99.90;;;;;;4985918;28;20047;-69
2022/04/11 01:29:15;;;;;;;9.90;4.63;;;4.70;99.90;;;;;;4973655;28;20041;-69
2022/04/11 01:31:40;;;;;;;7.47;4.73;;;4.60;99.90;;;;;;4972959;28;20043;-69
2022/04/11 01:34:06;;;;;;;11.00;5.50;;;;;;;;;;4973591;28;20065;-69
2022/04/11 01:36:32;;;;;;;8.50;5.27;;;4.60;99.90;;;;;;4971846;28;20341;-70
2022/04/11 01:38:58;;;;;;;10.70;5.00;;;;;;;;;;4964130;28;20028;-69
2022/04/11 01:41:24;;;;;;;8.37;4.60;;;;;;;;;;4954074;28;20478;-69
2022/04/11 01:43:50;;;;;;;7.63;4.17;;;;;;;;;;4954079;28;20015;-69
2022/04/11 01:46:15;;;;;;;7.03;4.43;;;4.60;99.90;;;;;;4953932;28;20358;-71
2022/04/11 01:48:41;;;;;;;6.07;3.73;;;4.20;99.90;;;;;;4953482;28;20032;-69
2022/04/11 01:51:06;;;;;;;6.50;4.07;;;4.50;99.90;;;;;;4953995;29;20182;-70
2022/04/11 01:53:32;;;;;;;5.83;4.50;;;4.40;99.90;;;;;;4958098;28;20035;-70
2022/04/11 01:55:58;;;;;;;6.70;4.00;;;;;;;;;;4973058;28;20042;-70
2022/04/11 01:58:23;;;;;;;6.53;4.63;;;4.30;99.90;;;;;;4972978;28;20037;-69
2022/04/11 02:00:49;;;;;;;6.17;4.37;;;;;;;;;;4972639;28;20030;-69
2022/04/11 02:03:15;;;;;;;8.10;4.43;;;4.30;99.90;;;;;;4973085;28;20491;-70
2022/04/11 02:05:44;;;;;;;5.10;4.00;;;4.40;99.90;;;;;;4972752;28;20045;-69
2022/04/11 02:08:13;;;;;;;6.00;4.67;;;4.10;99.90;;;;;;4971257;28;20027;-69
2022/04/11 02:10:40;;;;;;;8.33;5.10;;;4.10;99.90;;;;;;4972366;28;20081;-69
2022/04/11 02:13:06;;;;;;;5.73;4.47;;;4.20;99.90;;;;;;4972916;28;20365;-69
2022/04/11 02:15:32;;;;;;;9.47;5.23;;;;;;;;;;4972261;28;20026;-69
2022/04/11 02:17:58;;;;;;;6.63;5.63;;;4.20;99.90;;;;;;4972709;28;20023;-70
2022/04/11 02:20:24;;;;;;;11.03;5.40;;;4.20;99.90;;;;;;4972549;28;20092;-70
2022/04/11 02:22:51;;;;;;;8.07;5.50;;;4.30;99.90;;;;;;4972052;28;20097;-70
2022/04/11 02:25:24;;;;;;;7.20;5.50;;;4.30;99.90;;;;;;4962927;28;20038;-69
2022/04/11 02:27:50;;;;;;;6.70;4.80;;;4.20;99.90;;;;;;4991615;28;20468;-69
2022/04/11 02:30:17;;;;;;;7.63;5.33;;;4.20;99.90;;;;;;4991904;28;20038;-69
2022/04/11 02:32:45;;;;;;;7.93;4.77;;;4.20;99.90;;;;;;4991016;28;20030;-70
2022/04/11 02:35:11;;;;;;;9.07;5.17;;;4.00;99.90;;;;;;4991527;28;20026;-70
2022/04/11 02:37:37;;;;;;;9.13;5.70;;;4.00;99.90;;;;;;4990975;28;20081;-70
2022/04/11 02:40:04;;;;;;;5.70;4.87;;;3.90;99.90;;;;;;4974534;28;20026;-70
2022/04/11 02:42:30;;;;;;;11.27;5.67;;;3.90;99.90;;;;;;4971885;28;20030;-69
2022/04/11 02:44:55;;;;;;;7.37;4.67;;;3.80;99.90;;;;;;4972125;28;20026;-69
2022/04/11 02:47:21;;;;;;;5.23;4.73;;;3.80;99.90;;;;;;4972313;28;20058;-69
2022/04/11 02:49:47;;;;;;;8.87;4.50;;;3.70;99.90;;;;;;4986139;28;20069;-69
2022/04/11 02:52:13;;;;;;;9.73;6.00;;;3.70;99.90;;;;;;4991423;28;20116;-69
2022/04/11 02:54:39;;;;;;;7.97;5.00;;;3.60;99.90;;;;;;4991064;28;20026;-70
2022/04/11 02:57:05;;;;;;;8.33;5.17;;;3.60;99.90;;;;;;4991271;28;20030;-70
2022/04/11 02:59:38;;;;;;;6.77;5.30;;;3.30;99.90;;;;;;4991031;28;20027;-69
2022/04/11 03:02:04;;;;;;;8.13;6.10;;;3.50;99.90;;;;;;4991388;28;20429;-69
2022/04/11 03:04:30;;;;;;;9.43;5.17;;;3.60;99.90;;;;;;4979335;28;20050;-69
2022/04/11 03:06:56;;;;;;;10.37;5.67;;;3.50;99.90;;;;;;4971388;28;20066;-69
2022/04/11 03:09:22;;;;;;;7.07;5.37;;;3.50;99.90;;;;;;4971768;28;20023;-69
2022/04/11 03:11:48;;;;;;;8.57;5.87;;;;;;;;;;4971355;28;20105;-69
2022/04/11 03:14:14;;;;;;;9.20;6.03;;;3.50;99.90;;;;;;4971699;28;20488;-69
2022/04/11 03:16:42;;;;;;;8.30;5.57;;;3.40;99.90;;;;;;4976302;28;20034;-69
2022/04/11 03:19:09;;;;;;;10.43;6.20;;;3.40;99.90;;;;;;4989722;28;20037;-69
2022/04/11 03:21:35;;;;;;;10.57;6.27;;;3.30;99.90;;;;;;4990067;28;20033;-70
2022/04/11 03:24:00;;;;;;;9.57;5.33;;;3.40;99.90;;;;;;4990796;28;20022;-69
2022/04/11 03:26:26;;;;;;;10.10;6.17;;;3.40;99.90;;;;;;4990586;28;20058;-70
2022/04/11 03:28:52;;;;;;;10.23;6.10;;;3.40;99.90;;;;;;4990930;28;20391;-69
2022/04/11 03:31:17;;;;;;;9.60;5.93;;;3.30;99.90;;;;;;4988361;28;20117;-69
2022/04/11 03:33:43;;;;;;;7.83;5.60;;;3.20;99.90;;;;;;4981276;28;20037;-69
2022/04/11 03:36:09;;;;;;;8.17;7.00;;;3.30;99.90;;;;;;4990341;28;20018;-70
2022/04/11 03:38:35;;;;;;;10.93;6.73;;;3.30;99.90;;;;;;4990064;28;20019;-69
2022/04/11 03:41:01;;;;;;;7.40;6.70;;;3.10;99.90;;;;;;4990643;28;20105;-69
2022/04/11 03:43:27;;;;;;;9.63;7.13;;;;;;;;;;4988982;28;20512;-70
2022/04/11 03:45:52;;;;;;;9.83;7.30;;;3.50;99.90;;;;;;4990310;28;20037;-69
2022/04/11 03:48:18;;;;;;;8.73;6.90;;;;;;;;;;4984005;28;20044;-69
2022/04/11 03:50:44;;;;;;;14.63;6.97;;;3.40;99.90;;;;;;4989563;28;20038;-70
2022/04/11 03:53:09;;;;;;;8.27;6.80;;;3.50;99.90;;;;;;4990361;28;20018;-70
2022/04/11 03:55:35;;;;;;;9.03;6.20;;;3.40;99.90;;;;;;4989980;28;20034;-70
2022/04/11 03:58:00;;;;;;;12.77;6.43;;;3.40;99.90;;;;;;4990423;28;20068;-70
2022/04/11 04:00:26;;;;;;;14.20;8.13;;;;;;;;;;4990069;28;20070;-70
2022/04/11 04:02:53;;;;;;;13.57;7.70;;;3.30;99.90;;;;;;4987309;28;20106;-70
2022/04/11 04:05:18;;;;;;;11.83;6.50;;;3.60;99.90;;;;;;4976510;28;20030;-70
2022/04/11 04:07:44;;;;;;;14.47;8.47;;;;;;;;;;4974613;28;20029;-69
2022/04/11 04:10:10;;;;;;;14.00;7.97;;;;;;;;;;4971442;28;20039;-69
2022/04/11 04:12:36;;;;;;;12.63;6.73;;;3.30;99.90;;;;;;4989500;28;20023;-70
2022/04/11 04:15:02;;;;;;;8.23;6.17;;;3.40;99.90;;;;;;4990404;28;20038;-69
2022/04/11 04:17:27;;;;;;;6.77;6.07;;;3.40;99.90;;;;;;4988674;28;20029;-69
2022/04/11 04:19:54;;;;;;;7.70;6.03;;;;;;;;;;4983557;28;20038;-69
2022/04/11 04:22:20;;;;;;;8.90;6.87;;;3.20;99.90;;;;;;4970770;28;20018;-72
2022/04/11 04:24:46;;;;;;;10.13;7.47;;;3.10;99.90;;;;;;4970109;28;20799;-69
2022/04/11 04:27:11;;;;;;;12.53;7.60;;;3.30;99.90;;;;;;4984461;28;20038;-70
2022/04/11 04:29:37;;;;;;;11.37;8.63;;;;;;;;;;4984017;28;20523;-70
2022/04/11 04:32:03;;;;;;;10.03;8.37;;;3.30;99.90;;;;;;4984970;28;20028;-70
2022/04/11 04:34:31;;;;;;;12.77;7.87;;;2.90;99.90;;;;;;4972053;28;20038;-70
2022/04/11 04:36:58;;;;;;;12.00;7.20;;;3.40;99.90;;;;;;4989452;28;20026;-70
2022/04/11 04:39:24;;;;;;;12.57;7.73;;;;;;;;;;4989681;28;20114;-70
2022/04/11 04:41:49;;;;;;;10.33;7.93;;;3.30;99.90;;;;;;4989573;28;20165;-70
2022/04/11 04:44:15;;;;;;;13.10;9.33;;;3.30;99.90;;;;;;4989795;28;20064;-70
2022/04/11 04:46:40;;;;;;;12.10;8.50;;;3.40;99.90;;;;;;4988121;28;20030;-70
2022/04/11 04:49:06;;;;;;;11.17;8.87;;;3.50;99.90;;;;;;4983955;28;20093;-70
2022/04/11 04:51:32;;;;;;;13.77;9.60;;;;;;;;;;4987450;28;20046;-70
2022/04/11 04:53:57;;;;;;;11.23;8.67;;;3.60;99.90;;;;;;4977642;28;20085;-70
2022/04/11 04:56:24;;;;;;;11.03;6.83;;;;;;;;;;4968111;28;20082;-70
2022/04/11 04:58:51;;;;;;;15.33;7.73;;;3.50;99.90;;;;;;4992469;28;20030;-70
2022/04/11 05:01:16;;;;;;;10.47;7.63;;;3.60;99.90;;;;;;4993409;28;20034;-70
2022/04/11 05:03:42;;;;;;;10.40;8.80;;;;;;;;;;4992318;28;20279;-70
2022/04/11 05:06:08;;;;;;;6.97;6.27;;;3.60;99.90;;;;;;4993289;28;20093;-69
2022/04/11 05:08:34;;;;;;;10.83;8.67;;;;;;;;;;4992604;28;20052;-70
2022/04/11 05:11:00;;;;;;;16.93;9.60;;;3.60;99.90;;;;;;4992525;28;20038;-70
2022/04/11 05:13:26;;;;;;;17.20;10.10;;;;;;;;;;4985904;28;20516;-70
2022/04/11 05:15:52;;;;;;;12.33;9.00;;;3.90;99.90;;;;;;4991899;28;20823;-70
2022/04/11 05:18:18;;;;;;;15.30;9.20;;;;;;;;;;4992911;28;20033;-70
2022/04/11 05:20:44;;;;;;;14.20;9.07;;;3.90;99.90;;;;;;4992481;28;20037;-70
2022/04/11 05:23:10;;;;;;;13.60;10.97;;;;;;;;;;4993349;28;20026;-70
2022/04/11 05:25:35;;;;;;;12.30;9.43;;;4.70;99.90;;;;;;4992342;28;20051;-70
2022/04/11 05:28:01;;;;;;;13.87;9.70;;;;;;;;;;4975142;28;20066;-70
2022/04/11 05:30:27;;;;;;;12.83;9.93;;;4.10;99.90;;;;;;4973459;28;20035;-70
2022/04/11 05:32:53;;;;;;;13.47;9.40;;;4.20;99.90;;;;;;4976874;28;20038;-70
2022/04/11 05:35:19;;;;;;;13.20;8.50;;;4.10;99.90;;;;;;4990949;28;20085;-70
2022/04/11 05:37:44;;;;;;;13.07;9.50;;;4.20;99.90;;;;;;4985562;28;20069;-70
2022/04/11 05:40:12;;;;;;;14.27;10.23;;;4.10;99.90;;;;;;4975250;28;20034;-70
2022/04/11 05:42:38;;;;;;;17.67;9.73;;;4.20;99.90;;;;;;4991675;28;20048;-70
2022/04/11 05:45:04;;;;;;;16.07;9.60;;;4.50;99.90;;;;;;4992672;28;20034;-70
2022/04/11 05:47:30;;;;;;;13.90;9.90;;;4.30;99.90;;;;;;4974256;28;20137;-70
2022/04/11 05:49:56;;;;;;;12.83;8.93;;;;;;;;;;4982421;28;20544;-70
2022/04/11 05:52:22;;;;;;;14.80;9.80;;;4.30;99.90;;;;;;4986044;28;20040;-70
2022/04/11 05:54:48;;;;;;;11.33;9.47;;;4.20;99.90;;;;;;4992074;28;20030;-70
2022/04/11 05:57:14;;;;;;;17.60;11.03;;;4.30;99.90;;;;;;4992662;28;20052;-70
2022/04/11 05:59:40;;;;;;;11.13;10.03;;;;;;;;;;4984296;28;20038;-70
2022/04/11 06:02:05;;;;;;;17.50;11.67;;;4.40;99.90;;;;;;4972354;28;20027;-73
2022/04/11 06:04:31;;;;;;;13.93;9.60;;;;;;;;;;4973657;28;20038;-74
2022/04/11 06:06:58;;;;;;;14.63;11.77;;;4.30;99.90;;;;;;4991935;28;20403;-75
2022/04/11 06:09:23;;;;;;;11.63;9.33;;;4.40;99.90;;;;;;4990498;28;20025;-74
2022/04/11 06:11:49;;;;;;;15.90;9.83;;;4.30;99.90;;;;;;4991511;28;20030;-74
2022/04/11 06:14:14;;;;;;;14.30;10.43;;;4.30;99.90;;;;;;4987179;28;20034;-74
2022/04/11 06:16:40;;;;;;;13.80;10.90;;;4.30;99.90;;;;;;4979539;28;20038;-75
2022/04/11 06:19:08;;;;;;;16.23;10.77;;;4.50;99.90;;;;;;4991651;28;20027;-74
2022/04/11 06:21:34;;;;;;;16.87;11.10;;;;;;;;;;4991243;28;20075;-74
2022/04/11 06:23:59;;;;;;;10.03;8.60;;;4.30;99.90;;;;;;4991614;28;20336;-74
2022/04/11 06:26:25;;;;;;;15.90;9.70;;;4.50;99.90;;;;;;4973760;28;20345;-74
2022/04/11 06:28:50;;;;;;;16.40;11.73;;;4.40;99.90;;;;;;4990517;28;20035;-74
2022/04/11 06:31:16;;;;;;;20.53;13.53;;;4.60;99.90;;;;;;4971705;28;20129;-74
2022/04/11 06:33:42;;;;;;;16.00;11.37;;;4.90;99.90;;;;;;4973112;28;20371;-74
2022/04/11 06:36:08;;;;;;;10.83;9.73;;;4.70;99.90;;;;;;4991360;28;20479;-74
2022/04/11 06:38:34;;;;;;;12.83;10.83;;;;;;;;;;4990841;28;20018;-74
2022/04/11 06:41:00;;;;;;;15.80;12.07;;;;;;;;;;4990944;28;20080;-74
2022/04/11 06:43:26;;;;;;;13.43;10.70;;;;;;;;;;4990041;28;20026;-74
2022/04/11 06:45:52;;;;;;;17.23;11.00;;;5.10;99.90;;;;;;4988751;28;20375;-74
2022/04/11 06:48:17;;;;;;;15.30;9.93;;;5.10;99.90;;;;;;4990720;28;20105;-74
2022/04/11 06:50:43;;;;;;;11.43;10.13;;;5.20;99.90;;;;;;4990215;28;20122;-74
2022/04/11 06:53:09;;;;;;;13.63;10.73;;;5.50;99.90;;;;;;4990823;28;20468;-74
2022/04/11 06:55:35;;;;;;;11.67;10.43;;;5.70;99.90;;;;;;4990486;28;20171;-74
2022/04/11 06:58:01;;;;;;;13.60;11.43;;;;;;;;;;4988290;28;20121;-73
2022/04/11 07:00:27;;;;;;;13.90;8.23;;;;;;;;;;4987207;28;20081;-74
2022/04/11 07:02:53;;;;;;;11.20;8.67;;;5.80;99.90;;;;;;4988293;28;20097;-74
2022/04/11 07:05:19;;;;;;;11.00;8.47;;;5.70;99.90;;;;;;4990120;28;20164;-74
2022/04/11 07:07:44;;;;;;;11.23;8.60;;;;;;;;;;4989960;28;20022;-76
2022/04/11 07:10:10;;;;;;;12.67;9.30;;;;;;;;;;4990690;28;20042;-74
2022/04/11 07:12:40;;;;;;;13.40;8.70;;;6.20;99.90;;;;;;4971990;28;20097;-74
2022/04/11 07:15:06;;;;;;;16.90;10.23;;;6.30;99.90;;;;;;4989577;28;20034;-74
2022/04/11 07:17:32;;;;;;;13.53;9.17;;;;;;;;;;4972643;28;20045;-74
2022/04/11 07:19:58;;;;;;;9.13;7.73;;;;;;;;;;4989869;28;20030;-74
2022/04/11 07:22:24;;;;;;;9.93;8.53;;;6.70;99.90;;;;;;4989451;28;20029;-74
2022/04/11 07:24:49;;;;;;;9.73;8.70;;;6.70;99.90;;;;;;4989390;28;20042;-73
2022/04/11 07:27:15;;;;;;;9.67;8.57;;;6.90;99.90;;;;;;4989964;28;20408;-74
2022/04/11 07:29:41;;;;;;;12.50;8.73;;;6.80;99.90;;;;;;4988961;28;20038;-74
2022/04/11 07:32:07;;;;;;;10.33;8.73;;;6.90;99.90;;;;;;4975037;28;20035;-74
2022/04/11 07:34:32;;;;;;;10.23;8.77;;;7.00;99.90;;;;;;4989689;28;20411;-74
2022/04/11 07:36:58;;;;;;;10.73;8.07;;;;;;;;;;4990104;28;20125;-74
2022/04/11 07:39:24;;;;;;;14.00;9.77;;;7.10;99.90;;;;;;4989889;28;20097;-75
2022/04/11 07:41:50;;;;;;;11.30;9.10;;;7.20;99.90;;;;;;4987902;28;20044;-74
2022/04/11 07:44:16;;;;;;;12.77;8.90;;;7.50;99.90;;;;;;4987787;28;20022;-74
2022/04/11 07:46:42;;;;;;;13.87;8.73;;;;;;;;;;4975788;28;20462;-74
2022/04/11 07:49:08;;;;;;;11.27;8.37;;;7.60;99.90;;;;;;4989807;28;20023;-74
2022/04/11 07:51:34;;;;;;;13.00;8.03;;;7.70;99.90;;;;;;4989223;28;20475;-74
2022/04/11 07:54:00;;;;;;;10.33;8.47;;;;;;;;;;4989972;28;20058;-74
2022/04/11 07:56:26;;;;;;;10.83;8.70;;;8.00;99.90;;;;;;4971567;28;20035;-74
2022/04/11 07:58:52;;;;;;;8.90;7.97;;;8.10;99.90;;;;;;4989605;28;20169;-74
2022/04/11 08:01:18;;;;;;;9.50;7.83;;;;;;;;;;4987673;28;20563;-74
2022/04/11 08:03:47;;;;;;;8.33;7.53;;;8.10;99.90;;;;;;4971568;28;20375;-75
2022/04/11 08:06:13;;;;;;;10.03;7.37;;;8.40;99.90;;;;;;4989478;28;20022;-74
2022/04/11 08:08:44;;;;;;;13.27;7.63;;;8.60;99.90;;;;;;4989261;28;20369;-74
2022/04/11 08:11:10;;;;;;;12.83;7.77;;;;;;;;;;4989161;28;20440;-75
2022/04/11 08:13:35;;;;;;;8.67;7.77;;;8.70;99.90;;;;;;4971413;28;20185;-73
2022/04/11 08:16:01;;;;;;;10.07;7.47;;;8.90;99.90;;;;;;4987678;28;20117;-74
2022/04/11 08:18:27;;;;;;;9.67;7.37;;;;;;;;;;4976327;28;20231;-74
2022/04/11 08:20:52;;;;;;;12.40;7.43;;;8.90;99.90;;;;;;4969984;28;20027;-74
2022/04/11 08:23:18;;;;;;;7.50;6.80;;;9.20;99.90;;;;;;4988060;28;20109;-74
2022/04/11 08:25:43;;;;;;;11.13;8.47;;;9.60;99.90;;;;;;4988114;28;20042;-73
2022/04/11 08:28:09;;;;;;;9.73;7.63;;;;;;;;;;4989219;28;20031;-74
2022/04/11 08:30:35;;;;;;;9.33;8.43;;;;;;;;;;4988248;28;20050;-74
2022/04/11 08:33:00;;;;;;;10.80;9.13;;;9.40;99.90;;;;;;4992468;28;20022;-74
2022/04/11 08:35:26;;;;;;;8.83;7.77;;;9.30;99.90;;;;;;4993070;28;20038;-74
2022/04/11 08:37:51;;;;;;;12.23;8.70;;;9.60;99.90;;;;;;4993196;28;20092;-74
2022/04/11 08:40:19;;;;;;;10.50;8.90;;;9.60;99.90;;;;;;4992570;28;20022;-74
2022/04/11 08:42:45;;;;;;;10.27;8.10;;;;;;;;;;4992601;28;20073;-75
2022/04/11 08:45:16;;;;;;;9.13;8.17;;;9.60;99.90;;;;;;4992590;28;20529;-75
2022/04/11 08:47:42;;;;;;;9.03;8.00;;;9.80;99.90;;;;;;4991451;28;20113;-74
2022/04/11 08:50:09;;;;;;;11.83;7.50;;;10.10;99.90;;;;;;4993138;28;20095;-74
2022/04/11 08:52:36;;;;;;;13.17;7.93;;;9.90;99.90;;;;;;4991940;28;20403;-74
2022/04/11 08:55:03;;;;;;;13.17;8.50;;;10.20;99.90;;;;;;4992752;28;20557;-74
2022/04/11 08:57:31;;;;;;;12.03;7.87;;;10.20;99.90;;;;;;4992188;28;20046;-74
2022/04/11 09:00:04;;;;;;;9.57;8.57;;;10.20;99.90;;;;;;4992997;28;20062;-74
2022/04/11 09:02:34;;;;;;;13.43;8.83;;;10.40;99.90;;;;;;4984820;28;20065;-74
2022/04/11 09:05:00;;;;;;;9.13;7.97;;;10.30;99.90;;;;;;4993057;28;20117;-74
2022/04/11 09:07:25;;;;;;;12.83;8.17;;;10.40;99.90;;;;;;4991217;28;20045;-74
2022/04/11 09:09:51;;;;;;;9.73;7.43;;;10.50;99.90;;;;;;4991664;28;20034;-74
2022/04/11 09:12:19;;;;;;;10.53;7.50;;;10.60;99.90;;;;;;4992876;28;20387;-74
2022/04/11 09:14:56;;;;;;;11.17;6.60;;;10.90;99.90;;;;;;4988810;28;20022;-75
2022/04/11 09:17:25;;;;;;;10.13;6.60;;;10.80;99.90;;;;;;4991436;28;20042;-74
2022/04/11 09:20:07;;;;;;;7.53;5.73;;;10.90;96.50;;;;;;4992155;28;20866;-74
2022/04/11 09:22:33;;;;;;;7.80;5.53;;;11.00;99.90;;;;;;4990966;28;20030;-74
2022/04/11 09:25:15;;;;;;;8.57;6.17;;;10.90;99.90;;;;;;4991909;28;20053;-73
2022/04/11 09:27:41;;;;;;;8.07;5.70;;;11.20;99.90;;;;;;4991792;28;20026;-74
2022/04/11 09:30:22;;;;;;;7.90;4.83;;;11.30;94.50;;;;;;4990427;28;20065;-74
2022/04/11 09:33:00;;;;;;;8.33;6.80;;;11.40;99.90;;;;;;4973870;28;20037;-74
2022/04/11 09:35:32;;;;;;;8.00;5.40;;;11.50;99.90;;;;;;4972952;28;20110;-73
2022/04/11 09:38:12;;;;;;;6.72;4.75;;;11.50;94.40;;;;;;4972741;28;20112;-74
2022/04/11 09:40:48;;;;;;;6.77;5.33;;;11.50;93.70;;;;;;4987486;28;20026;-74
2022/04/11 09:43:16;;;;;;;5.57;4.82;;;11.50;92.90;;;;;;4983560;28;20049;-74
2022/04/11 09:45:42;;;;;;;11.80;5.82;;;11.80;99.90;;;;;;4991716;28;20181;-74
2022/04/11 09:48:08;;;;;;;6.13;5.07;;;11.80;99.90;;;;;;4992425;28;20022;-73
2022/04/11 09:50:34;;;;;;;10.53;5.53;;;11.80;93.20;;;;;;4991283;28;20379;-73
2022/04/11 09:53:14;;;;;;;7.60;4.60;;;11.70;92.90;;;;;;4987025;28;20059;-73
2022/04/11 09:55:41;;;;;;;7.73;4.40;;;12.00;92.70;;;;;;4960915;28;20039;-74
2022/04/11 09:58:07;;;;;;;6.63;4.65;;;12.00;93.20;;;;;;4957715;28;20073;-74
2022/04/11 10:00:42;;;;;;;5.37;4.03;;;12.20;92.90;;;;;;4959383;28;20452;-74
2022/04/11 10:03:08;;;;;;;5.70;3.70;;;12.10;93.00;;;;;;4991899;28;20058;-73
2022/04/11 10:05:35;;;;;;;6.83;2.97;;;12.10;92.10;;;;;;4987883;28;20061;-73
2022/04/11 10:08:07;;;;;;;5.37;4.27;;;12.20;92.30;;;;;;4978874;28;20089;-73
2022/04/11 10:10:34;;;;;;;7.55;3.20;;;12.40;99.00;;;;;;4991156;28;20041;-72
2022/04/11 10:13:01;;;;;;;6.55;2.92;;;12.40;92.30;;;;;;4991968;28;20047;-72
2022/04/11 10:15:28;;;;;;;4.28;2.78;;;12.30;91.80;;;;;;4991306;28;20453;-72
2022/04/11 10:17:55;;;;;;;3.13;2.65;;;12.30;91.60;;;;;;4990020;28;20026;-72
2022/04/11 10:20:23;;;;;;;6.47;3.13;;;12.40;91.70;;;;;;4991206;28;20030;-73
2022/04/11 10:22:55;;;;;;;7.05;3.40;;;12.60;98.50;;;;;;4962681;28;20396;-73
2022/04/11 10:25:21;;;;;;;4.97;2.80;;;;;;;;;;4990504;28;20114;-73
2022/04/11 10:28:07;;;;;;;5.72;2.63;;;12.50;90.20;;;;;;4989802;28;20179;-73
2022/04/11 10:30:32;;;;;;;3.92;2.63;;;12.40;91.00;;;;;;4990774;28;20456;-73
2022/04/11 10:32:58;;;;;;;4.23;2.80;;;12.50;90.70;;;;;;4977364;28;20065;-73
2022/04/11 10:35:39;;;;;;;11.02;3.53;;;12.40;90.70;;;;;;4989591;28;20171;-73
2022/04/11 10:38:06;;;;;;;6.10;3.47;;;14.10;91.30;;;;;;4988614;28;20031;-72
2022/04/11 10:40:32;;;;;;;3.85;3.03;;;12.70;90.30;;;;;;4990861;28;20130;-73
2022/04/11 10:43:00;;;;;;;6.78;4.40;;;12.60;90.10;;;;;;4990957;28;20105;-73
2022/04/11 10:45:30;;;;;;;6.72;3.70;;;12.80;90.30;;;;;;4991043;28;20391;-75
2022/04/11 10:47:56;;;;;;;5.57;4.13;;;12.80;90.40;;;;;;4990644;28;20022;-75
2022/04/11 10:50:23;;;;;;;4.95;3.70;;;12.90;89.80;;;;;;4990239;28;20042;-77
2022/04/11 10:53:06;;;;;;;4.95;3.20;;;12.90;89.00;;;;;;4990827;28;20101;-75
2022/04/11 10:55:32;;;;;;;7.57;2.75;;;;;;;;;;4989783;28;20088;-72
2022/04/11 10:58:00;;;;;;;5.18;3.42;;;13.00;87.70;;;;;;4990529;28;20026;-72
2022/04/11 11:00:33;;;;;;;7.35;4.32;;;12.80;89.90;;;;;;4990478;28;20119;-72
2022/04/11 11:03:01;;;;;;;5.95;3.60;;;12.90;90.10;;;;;;4990434;28;20037;-72
2022/04/11 11:05:48;;;;;;;5.80;3.50;;;12.90;87.40;;;;;;4987955;28;20034;-72
2022/04/11 11:08:14;;;;;;;6.68;2.75;;;12.90;90.20;;;;;;4975293;28;20562;-72
2022/04/11 11:10:58;;;;;;;4.60;2.88;;;12.90;89.10;;;;;;4989834;28;20364;-72
2022/04/11 11:13:30;;;;;;;;;;;12.90;85.90;;;;;;4990316;28;20030;-72
2022/04/11 11:16:09;;;;;;;6.13;3.80;;;13.00;87.00;;;;;;4988248;28;20520;-72
2022/04/11 11:18:46;;;;;;;5.53;3.38;;;12.90;86.20;;;;;;4989509;28;20117;-73
2022/04/11 11:21:16;;;;;;;3.55;2.50;;;12.90;88.50;;;;;;4989874;28;20117;-72
2022/04/11 11:24:01;;;;;;;6.47;3.20;;;12.90;87.60;;;;;;4972519;28;20750;-73
2022/04/11 11:26:29;;;;;;;6.03;2.90;;;13.00;84.40;;;;;;4986575;28;20109;-73
2022/04/11 11:28:55;;;;;;;6.47;3.70;;;13.00;85.20;;;;;;4989310;28;20050;-72
2022/04/11 11:31:22;;;;;;;5.13;3.75;;;13.00;83.70;;;;;;4986925;28;20073;-72
2022/04/11 11:33:51;;;;;;;8.32;4.10;;;12.90;83.40;;;;;;4989255;28;20038;-72
2022/04/11 11:36:17;;;;;;;7.32;3.97;;;13.00;84.00;;;;;;4990300;28;20085;-72
2022/04/11 11:38:42;;;;;;;6.25;4.50;;;13.10;84.10;;;;;;4988825;28;20130;-72
2022/04/11 11:41:08;;;;;;;4.97;3.35;;;13.00;83.90;;;;;;4983104;28;20109;-73
2022/04/11 11:43:34;;;;;;;4.10;3.17;;;13.00;84.10;;;;;;4970120;28;20034;-72
2022/04/11 11:46:01;;;;;;;11.13;5.00;;;14.10;84.80;;;;;;4970639;28;20466;-73
2022/04/11 11:48:31;;;;;;;8.07;4.82;;;13.20;85.70;;;;;;4971705;28;20050;-72
2022/04/11 11:50:58;;;;;;;5.45;4.95;;;13.20;85.50;;;;;;4981184;28;20129;-72
2022/04/11 11:53:26;;;;;;;6.78;5.15;;;13.20;84.30;;;;;;4972090;28;20445;-73
2022/04/11 11:55:59;;;;;;;6.50;5.13;;;13.30;85.40;;;;;;4988232;28;20134;-73
2022/04/11 11:58:37;;;;;;;6.68;3.90;;;13.30;83.10;;;;;;4987325;28;20118;-72
2022/04/11 12:01:05;;;;;;;6.90;4.13;;;13.20;85.40;;;;;;4998601;28;20036;-72
2022/04/11 12:06:25;;;;;;;6.03;3.67;;;13.30;81.40;;;;;;4990591;28;20114;-73
2022/04/11 12:09:00;;;;;;;5.88;2.75;;;13.40;83.80;;;;;;4988585;28;20037;-74
2022/04/11 12:11:27;;;;;;;5.25;3.42;;;13.50;83.50;;;;;;4988266;28;20100;-74
2022/04/11 12:14:07;;;;;;;5.57;3.67;;;13.50;83.20;;;;;;4969012;28;20030;-74
2022/04/11 12:16:35;;;;;;;8.85;4.25;;;13.60;81.60;;;;;;4971502;28;20388;-74
2022/04/11 12:19:02;;;;;;;5.40;3.10;;;13.50;82.50;;;;;;4989820;28;20376;-74
2022/04/11 12:21:40;;;;;;;6.68;4.55;;;13.60;82.60;;;;;;4989076;28;20026;-74
2022/04/11 12:24:10;;;;;;;7.22;3.42;;;13.60;83.50;;;;;;4989495;28;20053;-73
2022/04/11 12:26:40;;;;;;;7.30;5.38;;;13.80;82.90;;;;;;4988994;28;20460;-73
2022/04/11 12:29:11;;;;;;;5.78;3.80;;;13.80;83.30;;;;;;4989927;28;20125;-73
2022/04/11 12:31:39;;;;;;;6.55;4.00;;;13.80;83.50;;;;;;4999536;28;20440;-72
2022/04/11 12:34:12;;;;;;;6.38;3.80;;;13.90;81.30;;;;;;4989476;28;20356;-73
2022/04/11 12:37:02;;;;;;;9.82;4.22;;;13.90;82.10;;;;;;4988683;28;20531;-73
2022/04/11 12:39:28;;;;;;;6.88;3.28;;;14.00;80.30;;;;;;4988967;28;20027;-73
2022/04/11 12:41:55;;;;;;;6.85;4.00;;;13.90;81.50;;;;;;4986058;28;20034;-72
2022/04/11 12:44:32;;;;;;;11.10;4.97;;;13.90;81.40;;;;;;4975571;28;20023;-74
2022/04/11 12:47:00;;;;;;;7.30;4.82;;;14.00;80.10;;;;;;4988707;28;20364;-74
2022/04/11 12:49:46;;;;;;;10.13;4.45;;;13.90;78.20;;;;;;4988945;28;20040;-74
2022/04/11 12:52:12;;;;;;;6.32;3.50;;;14.00;79.90;;;;;;4989393;28;20364;-74
2022/04/11 12:54:46;;;;;;;8.32;4.50;;;13.90;79.40;;;;;;4988220;28;20026;-73
2022/04/11 12:57:18;;;;;;;8.65;4.93;;;14.10;79.50;;;;;;4988099;28;20018;-73
2022/04/11 12:59:43;;;;;;;11.98;5.50;;;13.90;75.70;;;;;;4982205;28;20039;-73
2022/04/11 13:02:10;;;;;;;5.82;3.88;;;14.00;75.80;;;;;;4987959;28;20037;-75
2022/04/11 13:04:39;;;;;;;8.43;4.85;;;14.70;75.80;;;;;;4981381;28;20050;-74
2022/04/11 13:07:05;;;;;;;8.02;4.00;;;14.10;77.00;;;;;;4983125;28;20026;-74
2022/04/11 13:09:32;;;;;;;5.75;3.88;;;15.00;75.50;;;;;;4986013;28;20149;-74